Terminal Aerodrome Forecast
Issued by NWS

Home | Current Version | Previous Version | Text Only | Print | Product List | Glossary On
Versions: 1 2 3 4 5 6 7 8 9 10 11 12 13 14 15 16 17 18 19 20 21 22 23 24 25 26 27 28 29 30 31
000
FTUS41 KRLX 302320
TAFCKB
TAF
KCKB 302320Z 0100/0124 19007KT P6SM SCT250
     FM011000 18009KT P6SM SCT120 BKN200
     FM011600 20010G16KT P6SM BKN100
     FM011800 22012G23KT 3SM TSRA SCT025 OVC035CB
     FM012100 24013G25KT P6SM BKN060=

USA.gov is the U.S. government's official web portal to all federal, state and local government web resources and services.